sensor_id;sensor_type;location;lat;lon;timestamp;pressure;altitude;pressure_sealevel;temperature;humidity
21545;BME280;10933;50.754;11.508;2023-04-27T00:00:50;98305.59;;;2.16;100.00
21545;BME280;10933;50.754;11.508;2023-04-27T00:03:16;98307.31;;;2.10;100.00
21545;BME280;10933;50.754;11.508;2023-04-27T00:05:42;98308.25;;;2.04;100.00
21545;BME280;10933;50.754;11.508;2023-04-27T00:08:09;98309.84;;;2.05;100.00
21545;BME280;10933;50.754;11.508;2023-04-27T00:10:35;98304.53;;;2.05;100.00
21545;BME280;10933;50.754;11.508;2023-04-27T00:13:01;98307.78;;;2.07;100.00
21545;BME280;10933;50.754;11.508;2023-04-27T00:15:27;98298.09;;;2.24;100.00
21545;BME280;10933;50.754;11.508;2023-04-27T00:17:54;98302.53;;;2.30;100.00
21545;BME280;10933;50.754;11.508;2023-04-27T00:20:20;98299.44;;;2.45;100.00
21545;BME280;10933;50.754;11.508;2023-04-27T00:22:46;98292.91;;;2.41;100.00
21545;BME280;10933;50.754;11.508;2023-04-27T00:25:12;98301.28;;;2.45;100.00
21545;BME280;10933;50.754;11.508;2023-04-27T00:27:38;98305.78;;;2.44;100.00
21545;BME280;10933;50.754;11.508;2023-04-27T00:30:05;98304.03;;;2.38;100.00
21545;BME280;10933;50.754;11.508;2023-04-27T00:32:31;98306.91;;;2.36;100.00
21545;BME280;10933;50.754;11.508;2023-04-27T00:34:57;98313.19;;;2.42;100.00
21545;BME280;10933;50.754;11.508;2023-04-27T00:37:23;98310.63;;;2.35;100.00
21545;BME280;10933;50.754;11.508;2023-04-27T00:39:50;98315.94;;;2.35;100.00
21545;BME280;10933;50.754;11.508;2023-04-27T00:42:16;98315.47;;;2.27;100.00
21545;BME280;10933;50.754;11.508;2023-04-27T00:44:45;98319.38;;;2.24;100.00
21545;BME280;10933;50.754;11.508;2023-04-27T00:47:11;98326.22;;;2.20;100.00
21545;BME280;10933;50.754;11.508;2023-04-27T00:49:38;98322.59;;;2.15;100.00
21545;BME280;10933;50.754;11.508;2023-04-27T00:52:04;98317.16;;;2.10;100.00
21545;BME280;10933;50.754;11.508;2023-04-27T00:54:31;98305.34;;;2.05;100.00
21545;BME280;10933;50.754;11.508;2023-04-27T00:56:58;98317.22;;;2.03;100.00
21545;BME280;10933;50.754;11.508;2023-04-27T00:59:24;98316.53;;;1.96;100.00
21545;BME280;10933;50.754;11.508;2023-04-27T01:01:51;98316.06;;;1.99;100.00
21545;BME280;10933;50.754;11.508;2023-04-27T01:04:18;98308.25;;;2.04;100.00
21545;BME280;10933;50.754;11.508;2023-04-27T01:06:44;98300.38;;;2.09;100.00
21545;BME280;10933;50.754;11.508;2023-04-27T01:09:10;98297.25;;;2.12;100.00
21545;BME280;10933;50.754;11.508;2023-04-27T01:11:36;98296.34;;;2.06;100.00
21545;BME280;10933;50.754;11.508;2023-04-27T01:14:04;98300.38;;;2.09;100.00
21545;BME280;10933;50.754;11.508;2023-04-27T01:16:34;98292.84;;;2.06;100.00
21545;BME280;10933;50.754;11.508;2023-04-27T01:19:02;98296.41;;;2.00;100.00
21545;BME280;10933;50.754;11.508;2023-04-27T01:21:28;98296.13;;;1.90;100.00
21545;BME280;10933;50.754;11.508;2023-04-27T01:23:54;98299.72;;;1.84;100.00
21545;BME280;10933;50.754;11.508;2023-04-27T01:26:21;98300.00;;;1.75;100.00
21545;BME280;10933;50.754;11.508;2023-04-27T01:28:47;98298.84;;;1.71;100.00
21545;BME280;10933;50.754;11.508;2023-04-27T01:31:13;98295.69;;;1.63;100.00
21545;BME280;10933;50.754;11.508;2023-04-27T01:33:40;98295.78;;;1.56;100.00
21545;BME280;10933;50.754;11.508;2023-04-27T01:36:07;98294.59;;;1.52;100.00
21545;BME280;10933;50.754;11.508;2023-04-27T01:38:34;98297.25;;;1.52;100.00
21545;BME280;10933;50.754;11.508;2023-04-27T01:41:03;98294.59;;;1.52;100.00
21545;BME280;10933;50.754;11.508;2023-04-27T01:43:29;98299.91;;;1.52;100.00
21545;BME280;10933;50.754;11.508;2023-04-27T01:48:33;98296.22;;;1.53;100.00
21545;BME280;10933;50.754;11.508;2023-04-27T01:50:59;98301.09;;;1.56;100.00
21545;BME280;10933;50.754;11.508;2023-04-27T01:53:25;98301.69;;;1.58;100.00
21545;BME280;10933;50.754;11.508;2023-04-27T01:55:51;98295.91;;;1.61;100.00
21545;BME280;10933;50.754;11.508;2023-04-27T01:58:17;98300.19;;;1.62;100.00
21545;BME280;10933;50.754;11.508;2023-04-27T02:00:43;98305.28;;;1.64;100.00
21545;BME280;10933;50.754;11.508;2023-04-27T02:03:09;98300.63;;;1.59;100.00
21545;BME280;10933;50.754;11.508;2023-04-27T02:05:35;98302.72;;;1.57;100.00
21545;BME280;10933;50.754;11.508;2023-04-27T02:08:01;98305.81;;;1.54;100.00
21545;BME280;10933;50.754;11.508;2023-04-27T02:10:27;98305.81;;;1.54;100.00
21545;BME280;10933;50.754;11.508;2023-04-27T02:12:54;98302.56;;;1.52;100.00
21545;BME280;10933;50.754;11.508;2023-04-27T02:15:20;98299.91;;;1.52;100.00
21545;BME280;10933;50.754;11.508;2023-04-27T02:17:46;98308.31;;;1.49;100.00
21545;BME280;10933;50.754;11.508;2023-04-27T02:20:12;98306.13;;;1.46;100.00
21545;BME280;10933;50.754;11.508;2023-04-27T02:22:43;98307.38;;;1.43;100.00
21545;BME280;10933;50.754;11.508;2023-04-27T02:25:10;98319.41;;;1.46;100.00
21545;BME280;10933;50.754;11.508;2023-04-27T02:27:37;98310.38;;;1.47;100.00
21545;BME280;10933;50.754;11.508;2023-04-27T02:30:08;98307.28;;;1.50;100.00
21545;BME280;10933;50.754;11.508;2023-04-27T02:32:34;98313.63;;;1.49;100.00
21545;BME280;10933;50.754;11.508;2023-04-27T02:35:02;98315.25;;;1.50;100.00
21545;BME280;10933;50.754;11.508;2023-04-27T02:37:29;98312.19;;;1.53;100.00
21545;BME280;10933;50.754;11.508;2023-04-27T02:39:55;98318.66;;;1.57;100.00
21545;BME280;10933;50.754;11.508;2023-04-27T02:42:24;98315.78;;;1.59;100.00
21545;BME280;10933;50.754;11.508;2023-04-27T02:44:50;98314.50;;;1.61;100.00
21545;BME280;10933;50.754;11.508;2023-04-27T02:47:17;98318.22;;;1.60;100.00
21545;BME280;10933;50.754;11.508;2023-04-27T02:49:43;98319.81;;;1.61;100.00
21545;BME280;10933;50.754;11.508;2023-04-27T02:52:10;98324.69;;;1.64;100.00
21545;BME280;10933;50.754;11.508;2023-04-27T02:54:36;98322.66;;;1.66;100.00
21545;BME280;10933;50.754;11.508;2023-04-27T02:57:02;98318.50;;;1.70;100.00
21545;BME280;10933;50.754;11.508;2023-04-27T02:59:28;98322.53;;;1.73;100.00
21545;BME280;10933;50.754;11.508;2023-04-27T03:01:54;98319.66;;;1.74;100.00
21545;BME280;10933;50.754;11.508;2023-04-27T03:04:20;98319.22;;;1.77;100.00
21545;BME280;10933;50.754;11.508;2023-04-27T03:06:47;98318.50;;;1.70;100.00
21545;BME280;10933;50.754;11.508;2023-04-27T03:09:13;98319.31;;;1.71;100.00
21545;BME280;10933;50.754;11.508;2023-04-27T03:11:39;98321.28;;;1.75;100.00
21545;BME280;10933;50.754;11.508;2023-04-27T03:14:05;98329.66;;;1.79;100.00
21545;BME280;10933;50.754;11.508;2023-04-27T03:16:32;98333.09;;;1.80;100.00
21545;BME280;10933;50.754;11.508;2023-04-27T03:18:58;98331.03;;;1.82;100.00
21545;BME280;10933;50.754;11.508;2023-04-27T03:21:25;98332.66;;;1.83;100.00
21545;BME280;10933;50.754;11.508;2023-04-27T03:23:52;98326.16;;;1.79;100.00
21545;BME280;10933;50.754;11.508;2023-04-27T03:26:18;98329.41;;;1.81;100.00
21545;BME280;10933;50.754;11.508;2023-04-27T03:28:45;98334.72;;;1.81;100.00
21545;BME280;10933;50.754;11.508;2023-04-27T03:31:13;98331.09;;;1.75;100.00
21545;BME280;10933;50.754;11.508;2023-04-27T03:33:39;98337.81;;;1.77;100.00
21545;BME280;10933;50.754;11.508;2023-04-27T03:36:07;98341.66;;;1.82;100.00
21545;BME280;10933;50.754;11.508;2023-04-27T03:38:34;98343.06;;;1.84;100.00
21545;BME280;10933;50.754;11.508;2023-04-27T03:41:00;98343.06;;;1.84;100.00
21545;BME280;10933;50.754;11.508;2023-04-27T03:43:27;98344.47;;;1.87;100.00
21545;BME280;10933;50.754;11.508;2023-04-27T03:45:53;98345.25;;;1.87;100.00
21545;BME280;10933;50.754;11.508;2023-04-27T03:48:19;98347.69;;;1.89;100.00
21545;BME280;10933;50.754;11.508;2023-04-27T03:50:45;98349.31;;;1.90;100.00
21545;BME280;10933;50.754;11.508;2023-04-27T03:53:13;98348.31;;;1.91;100.00
21545;BME280;10933;50.754;11.508;2023-04-27T03:55:40;98350.75;;;1.92;100.00
21545;BME280;10933;50.754;11.508;2023-04-27T03:58:07;98356.19;;;1.97;100.00
21545;BME280;10933;50.754;11.508;2023-04-27T04:00:35;98346.81;;;1.95;100.00
21545;BME280;10933;50.754;11.508;2023-04-27T04:03:02;98354.56;;;1.96;100.00
21545;BME280;10933;50.754;11.508;2023-04-27T04:05:28;98352.50;;;1.98;100.00
21545;BME280;10933;50.754;11.508;2023-04-27T04:07:57;98351.91;;;1.96;100.00
21545;BME280;10933;50.754;11.508;2023-04-27T04:10:24;98348.44;;;1.96;100.00
21545;BME280;10933;50.754;11.508;2023-04-27T04:12:51;98347.97;;;1.99;100.00
21545;BME280;10933;50.754;11.508;2023-04-27T04:15:17;98347.97;;;1.99;100.00
21545;BME280;10933;50.754;11.508;2023-04-27T04:17:44;98352.84;;;2.02;100.00
21545;BME280;10933;50.754;11.508;2023-04-27T04:20:12;98357.72;;;2.05;100.00
21545;BME280;10933;50.754;11.508;2023-04-27T04:22:38;98351.16;;;2.08;100.00
21545;BME280;10933;50.754;11.508;2023-04-27T04:25:05;98353.56;;;2.09;100.00
21545;BME280;10933;50.754;11.508;2023-04-27T04:27:32;98355.78;;;2.12;100.00
21545;BME280;10933;50.754;11.508;2023-04-27T04:29:58;98352.31;;;2.12;100.00
21545;BME280;10933;50.754;11.508;2023-04-27T04:32:25;98356.97;;;2.16;100.00
21545;BME280;10933;50.754;11.508;2023-04-27T04:34:56;98352.09;;;2.13;100.00
21545;BME280;10933;50.754;11.508;2023-04-27T04:37:23;98355.94;;;2.17;100.00
21545;BME280;10933;50.754;11.508;2023-04-27T04:39:50;98358.94;;;2.21;100.00
21545;BME280;10933;50.754;11.508;2023-04-27T04:42:16;98364.03;;;2.22;100.00
21545;BME280;10933;50.754;11.508;2023-04-27T04:44:42;98371.34;;;2.27;100.00
21545;BME280;10933;50.754;11.508;2023-04-27T04:47:08;98371.34;;;2.27;100.00
21545;BME280;10933;50.754;11.508;2023-04-27T04:49:38;98362.56;;;2.38;100.00
21545;BME280;10933;50.754;11.508;2023-04-27T04:52:04;98366.78;;;2.46;100.00
21545;BME280;10933;50.754;11.508;2023-04-27T04:54:30;98366.00;;;2.57;100.00
21545;BME280;10933;50.754;11.508;2023-04-27T04:56:56;98361.38;;;2.64;100.00
21545;BME280;10933;50.754;11.508;2023-04-27T04:59:24;98367.41;;;2.71;100.00
21545;BME280;10933;50.754;11.508;2023-04-27T05:01:50;98364.84;;;2.76;100.00
21545;BME280;10933;50.754;11.508;2023-04-27T05:04:20;98347.50;;;2.85;100.00
21545;BME280;10933;50.754;11.508;2023-04-27T05:06:47;98367.78;;;2.86;100.00
21545;BME280;10933;50.754;11.508;2023-04-27T05:09:13;98369.41;;;2.99;100.00
21545;BME280;10933;50.754;11.508;2023-04-27T05:11:39;98374.03;;;3.04;100.00
21545;BME280;10933;50.754;11.508;2023-04-27T05:14:05;98379.97;;;3.06;100.00
21545;BME280;10933;50.754;11.508;2023-04-27T05:16:31;98378.44;;;2.98;100.00
21545;BME280;10933;50.754;11.508;2023-04-27T05:18:57;98377.88;;;2.96;100.00
21545;BME280;10933;50.754;11.508;2023-04-27T05:21:23;98380.88;;;3.00;100.00
21545;BME280;10933;50.754;11.508;2023-04-27T05:23:50;98388.63;;;3.01;100.00
21545;BME280;10933;50.754;11.508;2023-04-27T05:26:17;98384.94;;;3.02;100.00
21545;BME280;10933;50.754;11.508;2023-04-27T05:28:43;98380.66;;;3.13;100.00
21545;BME280;10933;50.754;11.508;2023-04-27T05:31:10;98379.28;;;3.22;100.00
21545;BME280;10933;50.754;11.508;2023-04-27T05:33:38;98372.97;;;3.51;100.00
21545;BME280;10933;50.754;11.508;2023-04-27T05:36:05;98378.84;;;3.77;100.00
21545;BME280;10933;50.754;11.508;2023-04-27T05:38:31;98382.22;;;3.72;100.00
21545;BME280;10933;50.754;11.508;2023-04-27T05:40:59;98366.00;;;3.74;100.00
21545;BME280;10933;50.754;11.508;2023-04-27T05:43:26;98377.78;;;3.90;100.00
21545;BME280;10933;50.754;11.508;2023-04-27T05:45:52;98380.31;;;3.96;100.00
21545;BME280;10933;50.754;11.508;2023-04-27T05:48:18;98379.78;;;4.39;100.00
21545;BME280;10933;50.754;11.508;2023-04-27T05:50:45;98395.69;;;4.46;100.00
21545;BME280;10933;50.754;11.508;2023-04-27T05:53:11;98406.06;;;4.76;100.00
21545;BME280;10933;50.754;11.508;2023-04-27T05:55:37;98416.47;;;5.23;100.00
21545;BME280;10933;50.754;11.508;2023-04-27T05:58:04;98462.47;;;5.42;100.00
21545;BME280;10933;50.754;11.508;2023-04-27T06:00:30;98519.53;;;5.64;100.00
21545;BME280;10933;50.754;11.508;2023-04-27T06:02:56;98560.22;;;5.66;100.00
21545;BME280;10933;50.754;11.508;2023-04-27T06:05:22;98627.22;;;5.88;100.00
21545;BME280;10933;50.754;11.508;2023-04-27T06:07:48;98702.53;;;5.92;100.00
21545;BME280;10933;50.754;11.508;2023-04-27T06:10:15;98717.16;;;6.01;100.00
21545;BME280;10933;50.754;11.508;2023-04-27T06:12:41;98757.13;;;5.79;100.00
21545;BME280;10933;50.754;11.508;2023-04-27T06:15:08;98775.34;;;5.94;100.00
21545;BME280;10933;50.754;11.508;2023-04-27T06:17:35;98820.00;;;5.65;100.00
21545;BME280;10933;50.754;11.508;2023-04-27T06:20:03;98834.50;;;5.80;100.00
21545;BME280;10933;50.754;11.508;2023-04-27T06:22:34;98852.63;;;6.02;100.00
21545;BME280;10933;50.754;11.508;2023-04-27T06:25:02;98873.25;;;6.46;100.00
21545;BME280;10933;50.754;11.508;2023-04-27T06:27:28;98869.91;;;7.57;100.00
21545;BME280;10933;50.754;11.508;2023-04-27T06:29:54;98957.75;;;8.39;100.00
21545;BME280;10933;50.754;11.508;2023-04-27T06:32:20;99099.16;;;8.83;100.00
21545;BME280;10933;50.754;11.508;2023-04-27T06:34:47;99160.41;;;8.09;100.00
21545;BME280;10933;50.754;11.508;2023-04-27T06:37:14;99204.94;;;9.11;100.00
21545;BME280;10933;50.754;11.508;2023-04-27T06:39:43;99262.69;;;10.18;100.00
21545;BME280;10933;50.754;11.508;2023-04-27T06:42:10;99381.03;;;11.79;100.00
21545;BME280;10933;50.754;11.508;2023-04-27T06:44:36;99491.97;;;10.28;100.00
21545;BME280;10933;50.754;11.508;2023-04-27T06:47:02;99505.13;;;9.69;100.00
21545;BME280;10933;50.754;11.508;2023-04-27T06:49:28;99523.94;;;10.41;100.00
21545;BME280;10933;50.754;11.508;2023-04-27T06:51:55;99541.84;;;11.50;100.00
21545;BME280;10933;50.754;11.508;2023-04-27T06:54:21;99629.56;;;13.53;100.00
21545;BME280;10933;50.754;11.508;2023-04-27T06:56:47;99758.59;;;12.65;100.00
21545;BME280;10933;50.754;11.508;2023-04-27T06:59:13;99779.44;;;13.59;100.00
21545;BME280;10933;50.754;11.508;2023-04-27T07:01:39;99797.09;;;13.62;100.00
21545;BME280;10933;50.754;11.508;2023-04-27T07:04:06;99836.69;;;12.83;100.00
21545;BME280;10933;50.754;11.508;2023-04-27T07:06:32;99843.13;;;12.77;100.00
21545;BME280;10933;50.754;11.508;2023-04-27T07:08:58;99854.97;;;13.35;100.00
21545;BME280;10933;50.754;11.508;2023-04-27T07:11:24;99891.88;;;16.23;100.00
21545;BME280;10933;50.754;11.508;2023-04-27T07:13:51;99907.88;;;14.63;100.00
21545;BME280;10933;50.754;11.508;2023-04-27T07:16:17;99926.06;;;16.93;100.00
21545;BME280;10933;50.754;11.508;2023-04-27T07:18:43;99946.00;;;17.23;100.00
21545;BME280;10933;50.754;11.508;2023-04-27T07:21:10;99951.72;;;17.55;100.00
21545;BME280;10933;50.754;11.508;2023-04-27T07:23:37;99955.69;;;16.56;100.00
21545;BME280;10933;50.754;11.508;2023-04-27T07:26:04;99956.97;;;17.18;100.00
21545;BME280;10933;50.754;11.508;2023-04-27T07:28:30;99964.69;;;15.66;100.00
21545;BME280;10933;50.754;11.508;2023-04-27T07:30:56;99954.03;;;15.95;100.00
21545;BME280;10933;50.754;11.508;2023-04-27T07:33:23;99958.88;;;16.08;100.00
21545;BME280;10933;50.754;11.508;2023-04-27T07:35:49;99971.25;;;17.68;92.42
21545;BME280;10933;50.754;11.508;2023-04-27T07:38:15;99970.91;;;17.45;93.98
21545;BME280;10933;50.754;11.508;2023-04-27T07:40:42;99977.00;;;18.43;89.06
21545;BME280;10933;50.754;11.508;2023-04-27T07:43:08;99973.19;;;17.33;90.76
21545;BME280;10933;50.754;11.508;2023-04-27T07:45:35;99990.22;;;19.67;80.47
21545;BME280;10933;50.754;11.508;2023-04-27T07:48:04;99988.28;;;18.36;82.00
21545;BME280;10933;50.754;11.508;2023-04-27T07:50:30;99990.56;;;18.05;80.56
21545;BME280;10933;50.754;11.508;2023-04-27T07:52:57;99973.44;;;17.02;91.42
21545;BME280;10933;50.754;11.508;2023-04-27T07:55:24;99967.94;;;18.23;85.65
21545;BME280;10933;50.754;11.508;2023-04-27T07:57:52;99965.09;;;18.76;70.62
21545;BME280;10933;50.754;11.508;2023-04-27T08:00:19;99967.34;;;20.18;68.82
21545;BME280;10933;50.754;11.508;2023-04-27T08:02:45;99973.03;;;19.94;68.28
21545;BME280;10933;50.754;11.508;2023-04-27T08:05:11;99964.72;;;18.64;65.98
21545;BME280;10933;50.754;11.508;2023-04-27T08:07:38;99974.22;;;20.84;49.91
21545;BME280;10933;50.754;11.508;2023-04-27T08:10:06;99976.31;;;22.30;37.01
21545;BME280;10933;50.754;11.508;2023-04-27T08:12:32;99972.84;;;22.82;35.69
21545;BME280;10933;50.754;11.508;2023-04-27T08:14:58;99971.94;;;21.00;47.88
21545;BME280;10933;50.754;11.508;2023-04-27T08:17:25;99963.63;;;21.28;49.03
21545;BME280;10933;50.754;11.508;2023-04-27T08:19:51;99965.97;;;22.27;41.36
21545;BME280;10933;50.754;11.508;2023-04-27T08:22:17;99969.03;;;23.00;35.54
21545;BME280;10933;50.754;11.508;2023-04-27T08:24:43;99970.91;;;22.65;38.41
21545;BME280;10933;50.754;11.508;2023-04-27T08:27:10;99972.03;;;22.81;37.26
21545;BME280;10933;50.754;11.508;2023-04-27T08:29:36;99965.75;;;23.41;35.56
21545;BME280;10933;50.754;11.508;2023-04-27T08:32:04;99963.78;;;21.85;38.94
21545;BME280;10933;50.754;11.508;2023-04-27T08:34:30;99953.97;;;20.94;45.82
21545;BME280;10933;50.754;11.508;2023-04-27T08:36:57;99973.03;;;19.29;41.65
21545;BME280;10933;50.754;11.508;2023-04-27T08:39:23;99976.69;;;20.04;47.15
21545;BME280;10933;50.754;11.508;2023-04-27T08:41:49;99969.59;;;20.57;38.00
21545;BME280;10933;50.754;11.508;2023-04-27T08:44:16;99972.44;;;20.52;39.37
21545;BME280;10933;50.754;11.508;2023-04-27T08:46:42;99964.97;;;21.16;36.63
21545;BME280;10933;50.754;11.508;2023-04-27T08:49:08;99965.44;;;21.32;39.26
21545;BME280;10933;50.754;11.508;2023-04-27T08:51:35;99969.38;;;22.02;38.67
21545;BME280;10933;50.754;11.508;2023-04-27T08:54:01;99963.72;;;19.95;41.56
21545;BME280;10933;50.754;11.508;2023-04-27T08:56:28;99972.84;;;20.05;41.41
21545;BME280;10933;50.754;11.508;2023-04-27T08:58:55;99967.34;;;21.09;33.55
21545;BME280;10933;50.754;11.508;2023-04-27T09:01:23;99954.38;;;21.24;34.34
21545;BME280;10933;50.754;11.508;2023-04-27T09:03:56;99957.25;;;21.63;33.67
21545;BME280;10933;50.754;11.508;2023-04-27T09:06:30;99956.72;;;20.94;37.53
21545;BME280;10933;50.754;11.508;2023-04-27T09:08:56;99950.44;;;21.92;34.35
21545;BME280;10933;50.754;11.508;2023-04-27T09:11:36;99947.78;;;22.09;36.03
21545;BME280;10933;50.754;11.508;2023-04-27T09:14:17;99946.13;;;22.56;34.17
21545;BME280;10933;50.754;11.508;2023-04-27T09:16:43;99943.69;;;23.76;32.07
21545;BME280;10933;50.754;11.508;2023-04-27T09:19:09;99938.59;;;23.14;37.05
21545;BME280;10933;50.754;11.508;2023-04-27T09:21:36;99933.66;;;23.45;37.68
21545;BME280;10933;50.754;11.508;2023-04-27T09:24:12;99929.13;;;22.46;40.23
21545;BME280;10933;50.754;11.508;2023-04-27T09:26:39;99928.16;;;21.62;41.94
21545;BME280;10933;50.754;11.508;2023-04-27T09:29:06;99933.06;;;24.33;32.10
21545;BME280;10933;50.754;11.508;2023-04-27T09:31:34;99932.09;;;25.01;30.69
21545;BME280;10933;50.754;11.508;2023-04-27T09:34:01;99927.91;;;24.74;32.95
21545;BME280;10933;50.754;11.508;2023-04-27T09:36:28;99923.31;;;25.98;30.34
21545;BME280;10933;50.754;11.508;2023-04-27T09:38:55;99920.06;;;23.58;35.88
21545;BME280;10933;50.754;11.508;2023-04-27T09:41:22;99916.13;;;24.14;30.72
21545;BME280;10933;50.754;11.508;2023-04-27T09:43:48;99911.69;;;24.30;33.39
21545;BME280;10933;50.754;11.508;2023-04-27T09:46:15;99911.84;;;27.13;26.87
21545;BME280;10933;50.754;11.508;2023-04-27T09:48:41;99914.28;;;22.81;33.62
21545;BME280;10933;50.754;11.508;2023-04-27T09:51:08;99902.94;;;22.57;39.02
21545;BME280;10933;50.754;11.508;2023-04-27T09:53:56;99916.78;;;23.73;31.72
21545;BME280;10933;50.754;11.508;2023-04-27T09:59:13;99902.78;;;23.23;43.30
21545;BME280;10933;50.754;11.508;2023-04-27T10:01:50;99890.84;;;23.74;39.59
21545;BME280;10933;50.754;11.508;2023-04-27T10:07:01;99899.41;;;23.81;35.87
21545;BME280;10933;50.754;11.508;2023-04-27T10:09:59;99897.00;;;20.91;46.51
21545;BME280;10933;50.754;11.508;2023-04-27T10:12:21;99880.59;;;22.32;44.67
21545;BME280;10933;50.754;11.508;2023-04-27T10:17:22;99873.47;;;22.14;44.84
21545;BME280;10933;50.754;11.508;2023-04-27T10:19:58;99878.38;;;20.43;43.48
21545;BME280;10933;50.754;11.508;2023-04-27T10:22:46;99876.59;;;22.73;36.86
21545;BME280;10933;50.754;11.508;2023-04-27T10:25:20;99867.84;;;22.97;43.78
21545;BME280;10933;50.754;11.508;2023-04-27T10:28:15;99876.28;;;22.66;44.10
21545;BME280;10933;50.754;11.508;2023-04-27T10:30:44;99869.34;;;23.67;40.48
21545;BME280;10933;50.754;11.508;2023-04-27T10:33:15;99881.25;;;21.81;37.88
21545;BME280;10933;50.754;11.508;2023-04-27T10:35:52;99870.41;;;21.85;42.18
21545;BME280;10933;50.754;11.508;2023-04-27T10:38:20;99882.59;;;23.01;33.91
21545;BME280;10933;50.754;11.508;2023-04-27T10:41:01;99874.44;;;22.36;32.70
21545;BME280;10933;50.754;11.508;2023-04-27T10:43:30;99864.19;;;21.08;47.39
21545;BME280;10933;50.754;11.508;2023-04-27T10:46:10;99858.34;;;21.24;42.63
21545;BME280;10933;50.754;11.508;2023-04-27T10:48:38;99853.16;;;23.48;38.51
21545;BME280;10933;50.754;11.508;2023-04-27T10:51:05;99856.88;;;21.97;42.84
21545;BME280;10933;50.754;11.508;2023-04-27T10:53:36;99875.63;;;19.33;48.71
21545;BME280;10933;50.754;11.508;2023-04-27T10:56:03;99866.53;;;17.63;64.88
21545;BME280;10933;50.754;11.508;2023-04-27T10:58:32;99856.84;;;19.59;58.58
21545;BME280;10933;50.754;11.508;2023-04-27T11:00:58;99864.88;;;20.19;48.13
21545;BME280;10933;50.754;11.508;2023-04-27T11:03:24;99856.53;;;18.44;55.67
21545;BME280;10933;50.754;11.508;2023-04-27T11:06:01;99858.22;;;17.79;56.84
21545;BME280;10933;50.754;11.508;2023-04-27T11:08:29;99863.09;;;17.82;56.69
21545;BME280;10933;50.754;11.508;2023-04-27T11:11:01;99854.16;;;17.47;65.63
21545;BME280;10933;50.754;11.508;2023-04-27T11:13:27;99845.66;;;20.11;64.62
21545;BME280;10933;50.754;11.508;2023-04-27T11:15:54;99850.22;;;21.81;53.55
21545;BME280;10933;50.754;11.508;2023-04-27T11:18:31;99849.41;;;21.40;51.12
21545;BME280;10933;50.754;11.508;2023-04-27T11:21:12;99848.94;;;19.85;57.63
21545;BME280;10933;50.754;11.508;2023-04-27T11:23:39;99850.94;;;19.93;60.15
21545;BME280;10933;50.754;11.508;2023-04-27T11:28:36;99849.00;;;18.55;71.70
21545;BME280;10933;50.754;11.508;2023-04-27T11:31:02;99850.16;;;19.19;66.50
21545;BME280;10933;50.754;11.508;2023-04-27T11:33:31;99847.75;;;19.31;60.86
21545;BME280;10933;50.754;11.508;2023-04-27T11:35:58;99849.66;;;19.31;61.21
21545;BME280;10933;50.754;11.508;2023-04-27T11:38:25;99847.78;;;18.61;60.65
21545;BME280;10933;50.754;11.508;2023-04-27T11:41:00;99849.72;;;19.12;60.00
21545;BME280;10933;50.754;11.508;2023-04-27T11:43:27;99848.50;;;19.78;58.03
21545;BME280;10933;50.754;11.508;2023-04-27T11:45:54;99846.50;;;19.70;51.83
21545;BME280;10933;50.754;11.508;2023-04-27T11:48:22;99850.75;;;19.16;65.06
21545;BME280;10933;50.754;11.508;2023-04-27T11:50:48;99838.50;;;21.58;55.50
21545;BME280;10933;50.754;11.508;2023-04-27T11:53:15;99845.22;;;22.40;39.28
21545;BME280;10933;50.754;11.508;2023-04-27T11:55:42;99846.78;;;23.18;35.53
21545;BME280;10933;50.754;11.508;2023-04-27T11:58:15;99838.53;;;24.03;44.56
21545;BME280;10933;50.754;11.508;2023-04-27T12:00:41;99846.81;;;20.46;48.90
21545;BME280;10933;50.754;11.508;2023-04-27T12:03:07;99849.66;;;19.31;60.35
21545;BME280;10933;50.754;11.508;2023-04-27T12:05:34;99850.44;;;20.41;48.75
21545;BME280;10933;50.754;11.508;2023-04-27T12:08:00;99845.16;;;20.59;48.08
21545;BME280;10933;50.754;11.508;2023-04-27T12:10:27;99844.16;;;18.09;56.52
21545;BME280;10933;50.754;11.508;2023-04-27T12:12:53;99845.66;;;17.25;74.73
21545;BME280;10933;50.754;11.508;2023-04-27T12:15:19;99843.78;;;16.91;74.15
21545;BME280;10933;50.754;11.508;2023-04-27T12:17:45;99841.78;;;16.63;85.36
21545;BME280;10933;50.754;11.508;2023-04-27T12:20:12;99837.16;;;17.55;74.25
21545;BME280;10933;50.754;11.508;2023-04-27T12:22:40;99837.91;;;18.09;71.89
21545;BME280;10933;50.754;11.508;2023-04-27T12:25:06;99837.84;;;17.90;70.13
21545;BME280;10933;50.754;11.508;2023-04-27T12:27:32;99837.53;;;18.53;69.87
21545;BME280;10933;50.754;11.508;2023-04-27T12:29:58;99833.72;;;18.35;71.42
21545;BME280;10933;50.754;11.508;2023-04-27T12:32:25;99832.91;;;19.79;67.97
21545;BME280;10933;50.754;11.508;2023-04-27T12:34:52;99839.69;;;20.09;66.20
21545;BME280;10933;50.754;11.508;2023-04-27T12:37:18;99833.22;;;20.27;70.97
21545;BME280;10933;50.754;11.508;2023-04-27T12:39:46;99843.44;;;18.79;65.92
21545;BME280;10933;50.754;11.508;2023-04-27T12:42:12;99831.66;;;17.08;81.59
21545;BME280;10933;50.754;11.508;2023-04-27T12:44:38;99826.56;;;17.25;85.27
21545;BME280;10933;50.754;11.508;2023-04-27T12:47:04;99830.31;;;17.58;80.26
21545;BME280;10933;50.754;11.508;2023-04-27T12:49:30;99835.28;;;16.59;89.48
21545;BME280;10933;50.754;11.508;2023-04-27T12:51:56;99834.31;;;17.13;87.99
21545;BME280;10933;50.754;11.508;2023-04-27T12:54:23;99836.38;;;17.79;84.36
21545;BME280;10933;50.754;11.508;2023-04-27T12:56:49;99827.66;;;17.24;77.30
21545;BME280;10933;50.754;11.508;2023-04-27T12:59:16;99822.88;;;16.82;87.28
21545;BME280;10933;50.754;11.508;2023-04-27T13:01:42;99818.00;;;16.39;92.40
21545;BME280;10933;50.754;11.508;2023-04-27T13:04:08;99821.09;;;16.28;92.52